createdAt,value
2023-12-01T00:00:46.342Z,84.46
2023-12-01T00:03:35.106Z,84.31
2023-12-01T00:06:04.718Z,84.78
2023-12-01T00:08:33.010Z,84.78
2023-12-01T00:11:02.120Z,84.69
2023-12-01T00:13:30.588Z,84.63
2023-12-01T00:15:58.930Z,84.85
2023-12-01T00:18:27.865Z,84.90
2023-12-01T00:20:56.457Z,84.85
2023-12-01T00:23:24.719Z,84.93
2023-12-01T00:25:53.199Z,84.78
2023-12-01T00:28:21.537Z,84.73
2023-12-01T00:30:50.168Z,84.82
2023-12-01T00:33:18.781Z,84.84
2023-12-01T00:35:47.339Z,84.86
2023-12-01T00:38:15.595Z,84.95
2023-12-01T00:40:44.038Z,84.86
2023-12-01T00:43:14.218Z,84.80
2023-12-01T00:45:42.591Z,84.64
2023-12-01T00:48:11.311Z,84.56
2023-12-01T00:50:41.030Z,84.49
2023-12-01T00:53:10.383Z,84.65
2023-12-01T00:55:38.647Z,84.54
2023-12-01T00:58:06.939Z,84.51
2023-12-01T01:00:35.318Z,84.51
2023-12-01T01:03:03.781Z,84.55
2023-12-01T01:05:32.399Z,84.44
2023-12-01T01:08:01.666Z,84.33
2023-12-01T01:10:30.151Z,84.30
2023-12-01T01:12:58.606Z,84.26
2023-12-01T01:15:26.912Z,84.37
2023-12-01T01:17:55.390Z,84.38
2023-12-01T01:20:23.574Z,84.18
2023-12-01T01:22:51.417Z,84.46
2023-12-01T01:25:19.441Z,84.63
2023-12-01T01:27:47.510Z,84.79
2023-12-01T01:30:15.577Z,84.91
2023-12-01T01:32:43.536Z,84.92
2023-12-01T01:35:11.589Z,84.90
2023-12-01T01:37:41.109Z,84.75
2023-12-01T01:40:09.352Z,84.78
2023-12-01T01:42:37.426Z,84.90
2023-12-01T01:45:06.587Z,84.88
2023-12-01T01:47:35.206Z,85.03
2023-12-01T01:50:04.837Z,85.17
2023-12-01T01:52:33.705Z,84.94
2023-12-01T01:55:01.912Z,85.21
2023-12-01T01:57:37.252Z,85.61
2023-12-01T02:00:07.612Z,85.74
2023-12-01T02:02:41.446Z,85.76
2023-12-01T02:05:14.947Z,85.99
2023-12-01T02:07:43.121Z,85.77
2023-12-01T02:10:17.185Z,85.91
2023-12-01T02:12:46.659Z,85.94
2023-12-01T02:15:14.816Z,85.96
2023-12-01T02:17:42.725Z,85.96
2023-12-01T02:20:16.928Z,86.08
2023-12-01T02:22:46.168Z,86.25
2023-12-01T02:25:14.104Z,85.49
2023-12-01T02:27:42.265Z,85.69
2023-12-01T02:30:13.266Z,85.95
2023-12-01T02:32:41.322Z,85.82
2023-12-01T02:35:11.696Z,86.18
2023-12-01T02:37:39.604Z,86.74
2023-12-01T02:40:17.618Z,86.67
2023-12-01T02:42:50.920Z,86.77
2023-12-01T02:45:20.256Z,86.62
2023-12-01T02:47:51.636Z,86.67
2023-12-01T02:50:20.077Z,86.72
2023-12-01T02:52:48.449Z,86.82
2023-12-01T02:55:16.713Z,86.64
2023-12-01T02:57:45.179Z,86.91
2023-12-01T03:00:16.957Z,87.07
2023-12-01T03:02:45.736Z,87.14
2023-12-01T03:05:14.013Z,87.13
2023-12-01T03:07:42.622Z,87.17
2023-12-01T03:10:10.905Z,87.13
2023-12-01T03:12:40.983Z,86.92
2023-12-01T03:15:14.058Z,87.04
2023-12-01T03:17:42.334Z,86.85
2023-12-01T03:20:12.036Z,86.68
2023-12-01T03:22:41.526Z,86.74
2023-12-01T03:25:13.663Z,86.80
2023-12-01T03:27:44.667Z,86.61
2023-12-01T03:30:17.804Z,86.51
2023-12-01T03:32:47.545Z,86.68
2023-12-01T03:35:18.108Z,86.52
2023-12-01T03:37:46.378Z,86.60
2023-12-01T03:40:15.442Z,86.39
2023-12-01T03:42:53.412Z,86.32
2023-12-01T03:45:22.308Z,86.00
2023-12-01T03:47:51.796Z,86.26
2023-12-01T03:50:20.910Z,86.24
2023-12-01T03:52:51.185Z,86.34
2023-12-01T03:55:19.618Z,86.87
2023-12-01T03:57:47.559Z,86.83
2023-12-01T04:00:19.497Z,87.03
2023-12-01T04:02:49.460Z,86.95
2023-12-01T04:05:21.968Z,86.70
2023-12-01T04:07:55.322Z,86.75
2023-12-01T04:10:27.818Z,87.04
2023-12-01T04:12:56.913Z,87.02
2023-12-01T04:15:28.963Z,87.01
2023-12-01T04:17:57.060Z,87.17
2023-12-01T04:20:29.081Z,86.99
2023-12-01T04:23:02.262Z,86.94
2023-12-01T04:25:31.099Z,86.88
2023-12-01T04:27:59.825Z,86.83
2023-12-01T04:30:28.407Z,86.87
2023-12-01T04:32:58.799Z,86.91
2023-12-01T04:35:29.497Z,86.80
2023-12-01T04:37:59.302Z,86.88
2023-12-01T04:40:29.095Z,86.90
2023-12-01T04:42:58.823Z,86.94
2023-12-01T04:45:28.568Z,86.84
2023-12-01T04:47:56.813Z,86.64
2023-12-01T04:50:31.057Z,86.75
2023-12-01T04:53:02.025Z,86.44
2023-12-01T04:55:31.320Z,86.29
2023-12-01T04:58:02.081Z,86.09
2023-12-01T05:00:29.861Z,86.39
2023-12-01T05:03:06.601Z,86.44
2023-12-01T05:05:36.872Z,86.63
2023-12-01T05:08:10.337Z,86.30
2023-12-01T05:10:39.357Z,86.01
2023-12-01T05:13:08.698Z,86.12
2023-12-01T05:15:38.474Z,86.01
2023-12-01T05:18:08.606Z,86.38
2023-12-01T05:20:37.116Z,86.32
2023-12-01T05:23:12.613Z,86.32
2023-12-01T05:25:43.290Z,86.16
2023-12-01T05:28:12.898Z,86.36
2023-12-01T05:30:47.432Z,86.70
2023-12-01T05:33:15.851Z,86.40
2023-12-01T05:35:44.745Z,86.21
2023-12-01T05:38:12.760Z,86.63
2023-12-01T05:40:40.740Z,86.09
2023-12-01T05:43:09.312Z,86.61
2023-12-01T05:45:38.207Z,86.16
2023-12-01T05:48:10.586Z,86.49
2023-12-01T05:50:43.482Z,86.19
2023-12-01T05:53:12.822Z,86.27
2023-12-01T05:55:40.619Z,86.49
2023-12-01T05:58:11.623Z,86.81
2023-12-01T06:00:41.389Z,86.99
2023-12-01T06:03:12.018Z,87.06
2023-12-01T06:05:40.797Z,87.10
2023-12-01T06:08:12.303Z,86.65
2023-12-01T06:10:40.807Z,86.74
2023-12-01T06:13:09.675Z,86.73
2023-12-01T06:15:37.895Z,86.71
2023-12-01T06:18:05.997Z,86.87
2023-12-01T06:20:35.998Z,87.14
2023-12-01T06:23:09.246Z,87.13
2023-12-01T06:25:39.906Z,87.11
2023-12-01T06:28:11.151Z,87.19
2023-12-01T06:30:40.052Z,87.25
2023-12-01T06:33:09.384Z,87.17
2023-12-01T06:35:38.659Z,87.31
2023-12-01T06:38:08.116Z,87.30
2023-12-01T06:40:36.065Z,87.25
2023-12-01T06:43:12.177Z,87.06
2023-12-01T06:45:44.289Z,87.00
2023-12-01T06:48:14.219Z,86.86
2023-12-01T06:50:42.782Z,86.74
2023-12-01T06:53:11.979Z,86.71
2023-12-01T06:55:41.692Z,86.63
2023-12-01T06:58:11.046Z,86.63
2023-12-01T07:00:40.562Z,86.74
2023-12-01T07:03:09.972Z,86.50
2023-12-01T07:05:39.945Z,86.49
2023-12-01T07:08:16.818Z,86.65
2023-12-01T07:10:45.725Z,86.62
2023-12-01T07:13:14.429Z,86.66
2023-12-01T07:15:42.986Z,86.30
2023-12-01T07:18:13.338Z,86.28
2023-12-01T07:20:41.298Z,86.51
2023-12-01T07:23:09.454Z,86.35
2023-12-01T07:25:37.885Z,86.41
2023-12-01T07:28:08.000Z,86.23
2023-12-01T07:30:42.252Z,86.16
2023-12-01T07:33:31.183Z,86.09
2023-12-01T07:36:35.474Z,85.44
2023-12-01T07:39:02.869Z,85.05
2023-12-01T07:41:33.232Z,85.29
2023-12-01T07:44:01.049Z,85.47
2023-12-01T07:46:29.414Z,85.66
2023-12-01T07:49:08.828Z,85.80
2023-12-01T07:51:37.738Z,85.30
2023-12-01T07:54:05.789Z,85.26
2023-12-01T07:56:33.495Z,84.66
2023-12-01T07:59:07.027Z,84.57
2023-12-01T08:01:35.037Z,84.70
2023-12-01T08:04:03.848Z,84.87
2023-12-01T08:06:33.936Z,84.65
2023-12-01T08:09:02.272Z,84.88
2023-12-01T08:11:39.414Z,84.77
2023-12-01T08:14:13.582Z,84.25
2023-12-01T08:16:43.708Z,83.92
2023-12-01T08:19:11.943Z,84.04
2023-12-01T08:21:40.180Z,83.61
2023-12-01T08:24:08.149Z,83.63
2023-12-01T08:26:37.665Z,83.36
2023-12-01T08:29:06.306Z,83.40
2023-12-01T08:31:34.443Z,83.41
2023-12-01T08:34:02.469Z,83.76
2023-12-01T08:36:32.608Z,83.46
2023-12-01T08:39:01.443Z,83.49
2023-12-01T08:41:29.626Z,83.57
2023-12-01T08:43:58.027Z,82.83
2023-12-01T08:46:38.420Z,82.84
2023-12-01T08:49:10.454Z,83.01
2023-12-01T08:51:38.223Z,83.00
2023-12-01T08:54:12.929Z,83.35
2023-12-01T08:56:42.998Z,83.17
2023-12-01T08:59:11.003Z,83.28
2023-12-01T09:01:39.307Z,83.05
2023-12-01T09:04:07.531Z,82.37
2023-12-01T09:06:35.831Z,82.73
2023-12-01T09:09:06.510Z,82.30
2023-12-01T09:11:34.387Z,82.22
2023-12-01T09:14:02.096Z,82.33
2023-12-01T09:16:30.386Z,82.18
2023-12-01T09:18:58.714Z,81.86
2023-12-01T09:21:28.217Z,81.93
2023-12-01T09:23:56.470Z,82.21
2023-12-01T09:26:26.967Z,82.09
2023-12-01T09:28:55.740Z,82.05
2023-12-01T09:31:24.553Z,81.53
2023-12-01T09:33:55.213Z,81.67
2023-12-01T09:36:23.774Z,81.88
2023-12-01T09:38:51.947Z,80.95
2023-12-01T09:41:20.303Z,80.35
2023-12-01T09:43:54.583Z,80.41
2023-12-01T09:46:30.791Z,80.39
2023-12-01T09:49:00.467Z,80.19
2023-12-01T09:51:32.126Z,80.63
2023-12-01T09:54:01.149Z,80.71
2023-12-01T09:56:29.501Z,80.58
2023-12-01T09:58:58.546Z,80.58
2023-12-01T10:01:35.112Z,80.42
2023-12-01T10:04:10.882Z,80.35
2023-12-01T10:06:39.003Z,80.15
2023-12-01T10:09:14.338Z,80.39
2023-12-01T10:11:42.649Z,80.41
2023-12-01T10:14:12.945Z,79.90
2023-12-01T10:16:41.932Z,79.61
2023-12-01T10:19:13.093Z,79.22
2023-12-01T10:21:47.873Z,78.57
2023-12-01T10:24:25.149Z,78.52
2023-12-01T10:26:57.082Z,78.14
2023-12-01T10:29:48.449Z,78.30
2023-12-01T10:32:19.516Z,78.66
2023-12-01T10:34:53.930Z,78.20
2023-12-01T10:37:23.530Z,77.99
2023-12-01T10:39:55.816Z,77.91
2023-12-01T10:42:25.329Z,77.90
2023-12-01T10:44:56.418Z,78.14
2023-12-01T10:47:27.564Z,77.73
2023-12-01T10:49:59.554Z,77.88
2023-12-01T10:52:27.323Z,77.64
2023-12-01T10:54:55.246Z,77.57
2023-12-01T10:57:39.649Z,77.09
2023-12-01T11:00:29.887Z,77.17
2023-12-01T11:03:04.941Z,77.14
2023-12-01T11:05:36.522Z,77.39
2023-12-01T11:08:21.773Z,77.31
2023-12-01T11:11:03.459Z,76.93
2023-12-01T11:13:45.186Z,77.08
2023-12-01T11:16:15.382Z,76.86
2023-12-01T11:18:44.923Z,77.27
2023-12-01T11:21:12.774Z,77.65
2023-12-01T11:23:40.708Z,77.75
2023-12-01T11:26:10.087Z,77.98
2023-12-01T11:28:46.008Z,77.79
2023-12-01T11:31:20.691Z,77.74
2023-12-01T11:33:59.158Z,77.88
2023-12-01T11:36:38.718Z,78.12
2023-12-01T11:39:31.507Z,78.10
2023-12-01T11:42:00.513Z,77.58
2023-12-01T11:44:32.154Z,77.66
2023-12-01T11:47:04.817Z,77.77
2023-12-01T11:49:43.295Z,77.64
2023-12-01T11:52:14.520Z,77.75
2023-12-01T11:54:43.502Z,77.85
2023-12-01T11:57:14.173Z,77.97
2023-12-01T11:59:42.788Z,78.17
2023-12-01T12:02:11.645Z,78.47
2023-12-01T12:04:39.785Z,78.65
2023-12-01T12:07:09.873Z,78.63
2023-12-01T12:09:40.636Z,78.73
2023-12-01T12:12:19.713Z,78.65
2023-12-01T12:14:52.411Z,78.70
2023-12-01T12:17:23.296Z,78.47
2023-12-01T12:19:58.494Z,78.07
2023-12-01T12:22:31.757Z,77.92
2023-12-01T12:25:00.250Z,78.49
2023-12-01T12:27:38.414Z,78.70
2023-12-01T12:30:08.573Z,78.35
2023-12-01T12:32:38.198Z,78.48
2023-12-01T12:35:07.578Z,78.65
2023-12-01T12:37:36.682Z,78.78
2023-12-01T12:40:09.547Z,78.33
2023-12-01T12:42:38.516Z,78.43
2023-12-01T12:45:07.256Z,78.96
2023-12-01T12:47:39.078Z,78.57
2023-12-01T12:50:10.563Z,78.48
2023-12-01T12:52:40.517Z,78.69
2023-12-01T12:55:10.773Z,78.71
2023-12-01T12:57:38.890Z,78.49
2023-12-01T13:00:09.815Z,78.91
2023-12-01T13:02:37.822Z,79.22
2023-12-01T13:05:06.008Z,79.09
2023-12-01T13:07:34.278Z,79.35
2023-12-01T13:10:23.580Z,79.01
2023-12-01T13:12:59.233Z,78.96
2023-12-01T13:15:34.917Z,79.22
2023-12-01T13:18:03.412Z,79.25
2023-12-01T13:20:53.778Z,79.58
2023-12-01T13:23:27.216Z,78.97
2023-12-01T13:25:55.540Z,78.95
2023-12-01T13:28:23.843Z,78.87
2023-12-01T13:30:51.678Z,79.29
2023-12-01T13:33:19.907Z,79.61
2023-12-01T13:35:48.501Z,79.79
2023-12-01T13:38:19.179Z,80.00
2023-12-01T13:40:50.994Z,80.41
2023-12-01T13:43:18.876Z,80.27
2023-12-01T13:48:42.296Z,80.76
2023-12-01T13:51:10.812Z,80.61
2023-12-01T13:53:41.019Z,80.72
2023-12-01T13:56:13.370Z,80.80
2023-12-01T13:58:43.849Z,81.14
2023-12-01T14:01:14.619Z,81.45
2023-12-01T14:06:59.490Z,81.96
2023-12-01T14:09:27.276Z,82.01
2023-12-01T14:12:12.485Z,82.15
2023-12-01T14:14:51.952Z,82.11
2023-12-01T14:17:38.646Z,82.31
2023-12-01T14:20:08.350Z,82.34
2023-12-01T14:22:37.803Z,82.47
2023-12-01T14:25:07.842Z,82.43
2023-12-01T14:27:35.764Z,82.54
2023-12-01T14:30:10.232Z,82.35
2023-12-01T14:32:40.269Z,82.49
2023-12-01T14:35:09.188Z,83.02
2023-12-01T14:37:57.511Z,82.58
2023-12-01T14:40:25.400Z,82.92
2023-12-01T14:42:53.190Z,83.23
2023-12-01T14:45:21.442Z,82.79
2023-12-01T14:50:51.644Z,82.73
2023-12-01T14:53:19.976Z,82.97
2023-12-01T14:55:53.620Z,83.15
2023-12-01T14:58:22.683Z,82.99
2023-12-01T15:00:59.204Z,82.92
2023-12-01T15:03:27.148Z,83.35
2023-12-01T15:05:55.327Z,83.32
2023-12-01T15:08:23.977Z,83.31
2023-12-01T15:10:51.886Z,83.44
2023-12-01T15:13:19.826Z,83.46
2023-12-01T15:15:47.588Z,83.59
2023-12-01T15:18:15.596Z,83.14
2023-12-01T15:20:43.672Z,83.42
2023-12-01T15:23:12.245Z,83.33
2023-12-01T15:25:41.412Z,83.67
2023-12-01T15:28:09.384Z,83.31
2023-12-01T15:30:37.528Z,83.61
2023-12-01T15:33:05.785Z,82.94
2023-12-01T15:35:33.912Z,82.84
2023-12-01T15:38:01.651Z,82.64
2023-12-01T15:40:30.172Z,82.84
2023-12-01T15:42:58.363Z,82.55
2023-12-01T15:45:26.189Z,82.67
2023-12-01T15:47:54.366Z,82.77
2023-12-01T15:50:22.450Z,82.85
2023-12-01T15:52:51.063Z,82.65
2023-12-01T15:55:19.763Z,82.52
2023-12-01T15:57:47.694Z,82.52
2023-12-01T16:00:16.333Z,82.32
2023-12-01T16:02:44.586Z,82.38
2023-12-01T16:05:13.450Z,82.55
2023-12-01T16:07:41.237Z,82.23
2023-12-01T16:10:10.019Z,81.98
2023-12-01T16:12:38.226Z,81.87
2023-12-01T16:15:15.466Z,81.83
2023-12-01T16:17:46.442Z,82.26
2023-12-01T16:20:14.505Z,81.96
2023-12-01T16:22:42.485Z,82.04
2023-12-01T16:25:11.486Z,81.95
2023-12-01T16:27:39.296Z,82.27
2023-12-01T16:30:08.170Z,82.00
2023-12-01T16:32:36.463Z,82.44
2023-12-01T16:35:06.484Z,81.99
2023-12-01T16:37:35.757Z,82.41
2023-12-01T16:40:06.425Z,82.42
2023-12-01T16:42:34.285Z,82.22
2023-12-01T16:45:02.154Z,82.51
2023-12-01T16:47:30.980Z,81.96
2023-12-01T16:49:58.733Z,82.57
2023-12-01T16:52:26.561Z,82.42
2023-12-01T16:54:54.657Z,82.48
2023-12-01T16:57:23.222Z,82.58
2023-12-01T16:59:51.147Z,82.56
2023-12-01T17:02:19.304Z,82.79
2023-12-01T17:04:47.134Z,83.03
2023-12-01T17:07:15.047Z,83.10
2023-12-01T17:09:42.944Z,83.03
2023-12-01T17:12:10.711Z,83.29
2023-12-01T17:14:39.320Z,83.22
2023-12-01T17:17:11.835Z,83.33
2023-12-01T17:19:39.828Z,83.76
2023-12-01T17:22:07.582Z,83.81
2023-12-01T17:24:40.940Z,83.79
2023-12-01T17:27:14.833Z,83.62
2023-12-01T17:29:43.606Z,83.59
2023-12-01T17:32:11.660Z,83.99
2023-12-01T17:34:39.584Z,84.32
2023-12-01T17:37:08.065Z,84.45
2023-12-01T17:39:36.106Z,84.56
2023-12-01T17:42:04.006Z,85.18
2023-12-01T17:44:32.055Z,84.97
2023-12-01T17:47:00.117Z,85.16
2023-12-01T17:49:28.077Z,85.42
2023-12-01T17:51:56.370Z,85.58
2023-12-01T17:54:26.846Z,85.49
2023-12-01T17:56:54.731Z,85.84
2023-12-01T17:59:23.124Z,85.88
2023-12-01T18:01:50.978Z,85.93
2023-12-01T18:04:19.135Z,86.50
2023-12-01T18:06:49.106Z,86.39
2023-12-01T18:09:17.103Z,86.63
2023-12-01T18:11:45.386Z,86.51
2023-12-01T18:14:14.529Z,86.55
2023-12-01T18:16:42.315Z,86.81
2023-12-01T18:19:10.267Z,87.25
2023-12-01T18:21:38.531Z,86.80
2023-12-01T18:24:06.993Z,87.07
2023-12-01T18:26:38.692Z,87.02
2023-12-01T18:29:09.807Z,87.50
2023-12-01T18:31:38.068Z,87.32
2023-12-01T18:34:06.182Z,87.43
2023-12-01T18:36:34.388Z,87.79
2023-12-01T18:39:02.422Z,87.43
2023-12-01T18:41:30.337Z,87.36
2023-12-01T18:43:58.741Z,87.53
2023-12-01T18:46:26.483Z,87.96
2023-12-01T18:48:54.599Z,87.90
2023-12-01T18:51:22.785Z,87.69
2023-12-01T18:53:50.583Z,87.67
2023-12-01T18:56:18.495Z,87.39
2023-12-01T18:58:48.911Z,87.47
2023-12-01T19:01:16.838Z,87.32
2023-12-01T19:03:44.815Z,88.04
2023-12-01T19:06:13.250Z,88.17
2023-12-01T19:08:41.039Z,88.67
2023-12-01T19:11:08.853Z,88.81
2023-12-01T19:13:37.136Z,88.58
2023-12-01T19:16:05.680Z,88.25
2023-12-01T19:18:33.416Z,88.59
2023-12-01T19:21:01.836Z,88.74
2023-12-01T19:23:29.598Z,88.52
2023-12-01T19:25:58.521Z,88.30
2023-12-01T19:28:26.726Z,88.73
2023-12-01T19:30:54.777Z,88.33
2023-12-01T19:33:22.740Z,88.72
2023-12-01T19:35:51.136Z,88.61
2023-12-01T19:38:19.045Z,88.68
2023-12-01T19:40:47.160Z,88.74
2023-12-01T19:43:15.103Z,89.16
2023-12-01T19:45:42.999Z,89.15
2023-12-01T19:48:10.868Z,89.49
2023-12-01T19:50:41.268Z,88.96
2023-12-01T19:53:09.008Z,88.61
2023-12-01T19:55:36.754Z,88.76
2023-12-01T19:58:04.862Z,89.65
2023-12-01T20:00:32.581Z,89.38
2023-12-01T20:03:00.437Z,89.42
2023-12-01T20:05:29.774Z,89.59
2023-12-01T20:07:58.469Z,89.23
2023-12-01T20:10:26.202Z,89.33
2023-12-01T20:12:54.843Z,89.09
2023-12-01T20:15:22.560Z,89.67
2023-12-01T20:17:50.433Z,89.26
2023-12-01T20:20:20.121Z,89.14
2023-12-01T20:22:47.909Z,89.07
2023-12-01T20:25:15.635Z,88.86
2023-12-01T20:27:43.852Z,88.45
2023-12-01T20:30:12.452Z,88.66
2023-12-01T20:32:40.493Z,88.76
2023-12-01T20:35:08.591Z,89.01
2023-12-01T20:37:36.440Z,89.31
2023-12-01T20:40:05.939Z,89.15
2023-12-01T20:42:34.179Z,88.96
2023-12-01T20:45:02.227Z,88.94
2023-12-01T20:47:30.520Z,88.71
2023-12-01T20:49:58.743Z,89.17
2023-12-01T20:52:26.454Z,89.46
2023-12-01T20:54:54.192Z,89.97
2023-12-01T20:57:22.584Z,89.67
2023-12-01T20:59:50.379Z,89.61
2023-12-01T21:02:18.112Z,89.41
2023-12-01T21:04:46.185Z,89.58
2023-12-01T21:07:14.000Z,89.27
2023-12-01T21:09:41.847Z,89.40
2023-12-01T21:12:10.232Z,89.24
2023-12-01T21:14:37.960Z,89.10
2023-12-01T21:17:05.688Z,89.35
2023-12-01T21:19:34.206Z,89.53
2023-12-01T21:22:02.000Z,89.10
2023-12-01T21:24:30.480Z,89.17
2023-12-01T21:26:58.689Z,89.44
2023-12-01T21:29:26.484Z,89.07
2023-12-01T21:31:54.210Z,88.41
2023-12-01T21:34:22.788Z,88.68
2023-12-01T21:36:50.587Z,88.77
2023-12-01T21:39:18.308Z,88.71
2023-12-01T21:41:46.495Z,88.91
2023-12-01T21:44:15.096Z,88.81
2023-12-01T21:46:43.041Z,88.56
2023-12-01T21:49:11.204Z,88.43
2023-12-01T21:51:39.035Z,88.40
2023-12-01T21:54:07.012Z,88.06
2023-12-01T21:56:35.219Z,88.21
2023-12-01T21:59:03.897Z,88.75
2023-12-01T22:01:31.626Z,88.81
2023-12-01T22:04:00.776Z,89.17
2023-12-01T22:06:28.880Z,88.94
2023-12-01T22:08:56.704Z,89.06
2023-12-01T22:11:25.083Z,88.81
2023-12-01T22:13:53.242Z,89.01
2023-12-01T22:16:21.128Z,89.18
2023-12-01T22:18:51.983Z,89.11
2023-12-01T22:21:20.153Z,88.98
2023-12-01T22:23:47.952Z,89.10
2023-12-01T22:26:16.024Z,88.90
2023-12-01T22:28:44.370Z,89.09
2023-12-01T22:31:12.117Z,89.02
2023-12-01T22:33:40.332Z,89.03
2023-12-01T22:36:09.595Z,89.02
2023-12-01T22:38:37.320Z,89.01
2023-12-01T22:41:06.604Z,89.48
2023-12-01T22:43:34.565Z,89.41
2023-12-01T22:46:04.717Z,89.67
2023-12-01T22:48:32.882Z,89.75
2023-12-01T22:51:01.221Z,89.70
2023-12-01T22:53:29.012Z,89.96
2023-12-01T22:55:57.044Z,90.15
2023-12-01T22:58:25.064Z,90.16
2023-12-01T23:00:52.854Z,89.77
2023-12-01T23:03:21.010Z,89.92
2023-12-01T23:05:49.108Z,89.85
2023-12-01T23:08:17.393Z,90.00
2023-12-01T23:10:48.058Z,89.87
2023-12-01T23:13:16.023Z,89.96
2023-12-01T23:15:44.047Z,90.29
2023-12-01T23:18:12.230Z,90.11
2023-12-01T23:20:40.380Z,89.91
2023-12-01T23:23:08.281Z,89.78
2023-12-01T23:25:36.211Z,89.70
2023-12-01T23:28:04.452Z,89.45
2023-12-01T23:30:32.375Z,89.63
2023-12-01T23:33:00.553Z,89.67
2023-12-01T23:35:28.638Z,89.42
2023-12-01T23:37:56.455Z,89.46
2023-12-01T23:40:25.434Z,89.65
2023-12-01T23:42:53.483Z,89.65
2023-12-01T23:45:21.282Z,89.71
2023-12-01T23:47:49.316Z,89.92
2023-12-01T23:50:17.230Z,89.87
2023-12-01T23:52:44.965Z,89.90
2023-12-01T23:55:12.678Z,90.15
2023-12-01T23:57:41.618Z,90.13
